sensor_id;sensor_type;location;lat;lon;timestamp;pressure;altitude;pressure_sealevel;temperature;humidity
76687;BME280;65615;47.378;19.344;2023-02-03T05:21:05;100893.63;;;0.56;87.00
76687;BME280;65615;47.378;19.344;2023-02-03T05:25:09;100893.63;;;0.56;87.00
76687;BME280;65615;47.378;19.344;2023-02-03T05:29:12;100902.09;;;0.08;86.95
76687;BME280;65615;47.378;19.344;2023-02-03T05:33:15;100904.31;;;0.33;87.96
76687;BME280;65615;47.378;19.344;2023-02-03T05:37:18;100904.00;;;0.56;87.27
76687;BME280;65615;47.378;19.344;2023-02-03T05:41:21;100896.66;;;0.64;84.38
76687;BME280;65615;47.378;19.344;2023-02-03T05:45:42;100896.97;;;0.58;84.89
76687;BME280;65615;47.378;19.344;2023-02-03T05:49:45;100908.25;;;0.74;83.04
76687;BME280;65615;47.378;19.344;2023-02-03T05:53:48;100903.62;;;0.96;85.15
76687;BME280;65615;47.378;19.344;2023-02-03T05:57:51;100900.28;;;1.25;81.18
76687;BME280;65615;47.378;19.344;2023-02-03T06:01:53;100924.44;;;0.96;80.80
76687;BME280;65615;47.378;19.344;2023-02-03T06:05:56;100927.38;;;0.73;82.97
76687;BME280;65615;47.378;19.344;2023-02-03T06:10:00;100937.09;;;0.69;82.93
76687;BME280;65615;47.378;19.344;2023-02-03T06:14:03;100951.75;;;0.36;83.38
76687;BME280;65615;47.378;19.344;2023-02-03T06:18:06;100948.78;;;0.27;84.09
76687;BME280;65615;47.378;19.344;2023-02-03T06:22:09;100937.03;;;0.20;85.25
76687;BME280;65615;47.378;19.344;2023-02-03T06:26:12;100928.37;;;0.36;85.91
76687;BME280;65615;47.378;19.344;2023-02-03T06:30:20;100935.72;;;0.28;87.57
76687;BME280;65615;47.378;19.344;2023-02-03T06:34:25;100931.53;;;0.26;87.50
76687;BME280;65615;47.378;19.344;2023-02-03T06:38:29;100960.28;;;0.40;86.06
76687;BME280;65615;47.378;19.344;2023-02-03T06:42:32;100955.37;;;0.51;86.02
76687;BME280;65615;47.378;19.344;2023-02-03T06:46:35;100959.97;;;0.46;85.78
76687;BME280;65615;47.378;19.344;2023-02-03T06:50:38;100961.81;;;0.44;84.76
76687;BME280;65615;47.378;19.344;2023-02-03T06:54:42;100962.19;;;0.53;87.92
76687;BME280;65615;47.378;19.344;2023-02-03T06:58:44;100955.16;;;0.55;83.90
76687;BME280;65615;47.378;19.344;2023-02-03T07:02:54;100942.91;;;0.57;84.44
76687;BME280;65615;47.378;19.344;2023-02-03T07:07:05;100939.25;;;0.61;85.56
76687;BME280;65615;47.378;19.344;2023-02-03T07:11:20;100942.13;;;0.72;89.16
76687;BME280;65615;47.378;19.344;2023-02-03T07:15:29;100950.31;;;0.65;92.86
76687;BME280;65615;47.378;19.344;2023-02-03T07:19:46;100950.00;;;0.71;88.12
76687;BME280;65615;47.378;19.344;2023-02-03T07:24:12;100946.50;;;0.72;87.69
76687;BME280;65615;47.378;19.344;2023-02-03T07:28:18;100950.31;;;0.65;85.53
76687;BME280;65615;47.378;19.344;2023-02-03T07:32:33;100944.81;;;0.71;83.50
76687;BME280;65615;47.378;19.344;2023-02-03T07:36:40;100943.19;;;0.85;84.51
76687;BME280;65615;47.378;19.344;2023-02-03T07:40:46;100938.22;;;0.81;85.01
76687;BME280;65615;47.378;19.344;2023-02-03T07:44:49;100937.31;;;0.82;83.02
76687;BME280;65615;47.378;19.344;2023-02-03T07:48:52;100942.34;;;0.85;82.13
76687;BME280;65615;47.378;19.344;2023-02-03T07:53:02;100933.97;;;0.96;81.48
76687;BME280;65615;47.378;19.344;2023-02-03T07:57:06;100946.66;;;1.02;81.31
76687;BME280;65615;47.378;19.344;2023-02-03T08:01:13;100957.75;;;1.05;80.59
76687;BME280;65615;47.378;19.344;2023-02-03T08:05:43;100952.97;;;1.13;81.34
76687;BME280;65615;47.378;19.344;2023-02-03T08:10:03;100950.75;;;0.90;81.90
76687;BME280;65615;47.378;19.344;2023-02-03T08:14:06;100941.16;;;0.91;82.18
76687;BME280;65615;47.378;19.344;2023-02-03T08:18:09;100936.69;;;0.94;83.36
76687;BME280;65615;47.378;19.344;2023-02-03T08:22:14;100930.84;;;1.06;84.13
76687;BME280;65615;47.378;19.344;2023-02-03T08:26:24;100941.50;;;1.17;84.46
76687;BME280;65615;47.378;19.344;2023-02-03T08:30:34;100950.81;;;1.21;83.92
76687;BME280;65615;47.378;19.344;2023-02-03T08:34:51;100948.13;;;1.38;83.86
76687;BME280;65615;47.378;19.344;2023-02-03T08:39:15;100957.41;;;1.28;85.21
76687;BME280;65615;47.378;19.344;2023-02-03T08:43:18;100963.84;;;1.37;84.78
76687;BME280;65615;47.378;19.344;2023-02-03T08:47:48;100967.62;;;1.31;84.56
76687;BME280;65615;47.378;19.344;2023-02-03T08:51:53;100974.16;;;1.38;83.96
76687;BME280;65615;47.378;19.344;2023-02-03T08:55:57;100979.37;;;1.38;83.94
76687;BME280;65615;47.378;19.344;2023-02-03T09:00:19;100982.59;;;1.43;83.20
76687;BME280;65615;47.378;19.344;2023-02-03T09:04:36;100984.69;;;1.52;82.54
76687;BME280;65615;47.378;19.344;2023-02-03T09:09:13;100973.03;;;1.59;81.84
76687;BME280;65615;47.378;19.344;2023-02-03T09:13:58;100980.09;;;1.57;80.71
76687;BME280;65615;47.378;19.344;2023-02-03T09:18:04;100982.94;;;1.68;80.40
76687;BME280;65615;47.378;19.344;2023-02-03T09:22:16;100965.97;;;1.61;80.41
76687;BME280;65615;47.378;19.344;2023-02-03T09:26:26;100963.78;;;1.69;80.36
76687;BME280;65615;47.378;19.344;2023-02-03T09:30:47;100972.00;;;1.46;85.67
76687;BME280;65615;47.378;19.344;2023-02-03T09:34:58;100991.25;;;1.11;94.28
76687;BME280;65615;47.378;19.344;2023-02-03T09:39:08;100972.31;;;0.75;100.00
76687;BME280;65615;47.378;19.344;2023-02-03T09:43:27;100968.81;;;0.59;100.00
76687;BME280;65615;47.378;19.344;2023-02-03T09:47:45;100964.69;;;1.37;100.00
76687;BME280;65615;47.378;19.344;2023-02-03T09:52:02;100962.09;;;0.72;100.00
76687;BME280;65615;47.378;19.344;2023-02-03T09:56:51;100943.62;;;0.44;100.00
76687;BME280;65615;47.378;19.344;2023-02-03T10:01:02;100931.84;;;0.54;100.00
76687;BME280;65615;47.378;19.344;2023-02-03T10:19:13;100905.38;;;0.63;100.00
76687;BME280;65615;47.378;19.344;2023-02-03T10:23:46;100894.00;;;0.81;100.00
76687;BME280;65615;47.378;19.344;2023-02-03T10:28:18;100883.38;;;0.85;100.00
76687;BME280;65615;47.378;19.344;2023-02-03T10:33:11;100869.62;;;0.99;100.00
76687;BME280;65615;47.378;19.344;2023-02-03T10:37:36;100851.66;;;0.79;100.00
76687;BME280;65615;47.378;19.344;2023-02-03T10:42:12;100844.38;;;1.01;100.00
76687;BME280;65615;47.378;19.344;2023-02-03T10:46:34;100835.16;;;0.96;100.00
76687;BME280;65615;47.378;19.344;2023-02-03T10:51:02;100831.78;;;0.78;100.00
76687;BME280;65615;47.378;19.344;2023-02-03T10:59:46;100816.75;;;0.83;100.00
76687;BME280;65615;47.378;19.344;2023-02-03T11:03:57;100809.81;;;0.99;100.00
76687;BME280;65615;47.378;19.344;2023-02-03T11:08:13;100813.84;;;0.89;100.00
76687;BME280;65615;47.378;19.344;2023-02-03T11:12:21;100792.87;;;0.92;100.00
76687;BME280;65615;47.378;19.344;2023-02-03T11:16:24;100794.53;;;0.93;100.00
76687;BME280;65615;47.378;19.344;2023-02-03T11:20:42;100784.91;;;0.79;100.00
76687;BME280;65615;47.378;19.344;2023-02-03T11:24:46;100772.41;;;0.86;100.00
76687;BME280;65615;47.378;19.344;2023-02-03T11:28:52;100757.81;;;0.83;100.00
76687;BME280;65615;47.378;19.344;2023-02-03T11:33:19;100745.66;;;0.84;100.00
76687;BME280;65615;47.378;19.344;2023-02-03T11:41:36;100724.41;;;1.07;100.00
76687;BME280;65615;47.378;19.344;2023-02-03T11:45:44;100716.09;;;1.16;100.00
76687;BME280;65615;47.378;19.344;2023-02-03T11:50:02;100701.69;;;0.95;100.00
76687;BME280;65615;47.378;19.344;2023-02-03T11:54:28;100700.69;;;0.82;100.00
76687;BME280;65615;47.378;19.344;2023-02-03T12:03:47;100672.94;;;0.67;100.00
76687;BME280;65615;47.378;19.344;2023-02-03T12:13:13;100643.94;;;0.59;100.00
76687;BME280;65615;47.378;19.344;2023-02-03T12:21:50;100620.78;;;0.70;100.00
76687;BME280;65615;47.378;19.344;2023-02-03T12:26:20;100601.06;;;0.81;100.00
76687;BME280;65615;47.378;19.344;2023-02-03T12:30:38;100586.41;;;0.65;100.00
76687;BME280;65615;47.378;19.344;2023-02-03T12:34:55;100570.81;;;0.65;100.00
76687;BME280;65615;47.378;19.344;2023-02-03T12:39:13;100559.41;;;0.67;100.00
76687;BME280;65615;47.378;19.344;2023-02-03T12:43:24;100542.25;;;0.79;100.00
76687;BME280;65615;47.378;19.344;2023-02-03T12:47:40;100518.47;;;0.71;100.00
76687;BME280;65615;47.378;19.344;2023-02-03T12:51:50;100512.91;;;0.77;100.00
76687;BME280;65615;47.378;19.344;2023-02-03T12:56:11;100503.84;;;0.84;100.00
76687;BME280;65615;47.378;19.344;2023-02-03T13:04:53;100469.66;;;0.76;100.00
76687;BME280;65615;47.378;19.344;2023-02-03T13:13:47;100460.37;;;0.86;100.00
76687;BME280;65615;47.378;19.344;2023-02-03T13:18:24;100435.88;;;0.90;100.00
76687;BME280;65615;47.378;19.344;2023-02-03T13:22:31;100419.31;;;0.77;100.00
76687;BME280;65615;47.378;19.344;2023-02-03T13:32:01;100409.50;;;0.68;100.00
76687;BME280;65615;47.378;19.344;2023-02-03T13:40:36;100388.03;;;0.64;100.00
76687;BME280;65615;47.378;19.344;2023-02-03T13:44:44;100392.22;;;0.67;100.00
76687;BME280;65615;47.378;19.344;2023-02-03T13:48:49;100374.12;;;0.65;100.00
76687;BME280;65615;47.378;19.344;2023-02-03T13:52:58;100373.09;;;0.68;100.00
76687;BME280;65615;47.378;19.344;2023-02-03T13:57:05;100376.25;;;0.73;100.00
76687;BME280;65615;47.378;19.344;2023-02-03T14:01:35;100355.28;;;0.76;100.00
76687;BME280;65615;47.378;19.344;2023-02-03T14:05:42;100351.72;;;0.77;100.00
76687;BME280;65615;47.378;19.344;2023-02-03T14:09:46;100349.50;;;0.85;100.00
76687;BME280;65615;47.378;19.344;2023-02-03T14:13:50;100340.84;;;0.84;100.00
76687;BME280;65615;47.378;19.344;2023-02-03T14:22:02;100324.81;;;0.92;100.00
76687;BME280;65615;47.378;19.344;2023-02-03T14:31:03;100309.94;;;1.08;100.00
76687;BME280;65615;47.378;19.344;2023-02-03T14:35:21;100289.16;;;0.94;100.00
76687;BME280;65615;47.378;19.344;2023-02-03T14:43:59;100278.88;;;1.05;100.00
76687;BME280;65615;47.378;19.344;2023-02-03T14:52:58;100267.31;;;1.23;100.00
76687;BME280;65615;47.378;19.344;2023-02-03T15:05:58;100242.38;;;1.33;100.00
76687;BME280;65615;47.378;19.344;2023-02-03T15:10:01;100240.50;;;1.35;100.00
76687;BME280;65615;47.378;19.344;2023-02-03T15:18:27;100224.41;;;1.55;100.00
76687;BME280;65615;47.378;19.344;2023-02-03T15:22:36;100230.16;;;1.60;100.00
76687;BME280;65615;47.378;19.344;2023-02-03T15:26:59;100206.84;;;1.71;100.00
76687;BME280;65615;47.378;19.344;2023-02-03T15:35:24;100184.78;;;1.90;100.00
76687;BME280;65615;47.378;19.344;2023-02-03T15:43:44;100178.31;;;2.08;100.00
76687;BME280;65615;47.378;19.344;2023-02-03T15:48:04;100173.91;;;2.21;100.00
